Fort Meade, Florida
Current Conditions -  °F | °C
As of 1:55 AM on Thursday 27 Nov 2014 (Local Time) from KBOW Reporting Station
Clear Clear  
Wind Chill: 43°   Ceiling: Unl
Heat Index: 43°   Visibility: 10mi
Dew Point: 43°   Wind: 3mph
Humidity: 100%   Direction: 340°NNW
Pressure: 30.25"   Gusts: NA
Location:  27.75°N, 81.8°W
Report Text: KBOW 270655Z AUTO 34003KT 10SM CLR 06/06 A3025 RMK AO2
Loading
Personal Weather Stations






























Interactive Weather Map New forecast layout! Learn more

10-Day Weather Forecast

Advertisements
Track Severe Weather on mobile